This is the latest recevied weather packets stored in our database for station/object IZ1CYF-3. If no packets are shown the sender has not sent any weather packets the latest 10 day(s).
| Time | Temp. | Humidity | Pressure | Rain* | Wind** | Luminosity | Snow |
|---|---|---|---|---|---|---|---|
| 1777890719 | 19.44° C | 39% | 1018 hPa | - | - | - | - |
| 1777888919 | 17.78° C | 42% | 1018.6 hPa | - | - | - | - |
| 1777887119 | 16.67° C | 49% | 1019.2 hPa | - | - | - | - |
| 1777885319 | 16.67° C | 50% | 1019.1 hPa | - | - | - | - |
| 1777883519 | 15.56° C | 39% | 1019.6 hPa | - | - | - | - |
| 1777627920 | 14.44° C | 57% | 1029.4 hPa | - | - | - | - |
| 1777626120 | 13.33° C | 60% | 1029.7 hPa | - | - | - | - |
| 1777624321 | 13.33° C | 61% | 1029.5 hPa | - | - | - | - |
| 1777622520 | 13.89° C | 60% | 1029 hPa | - | - | - | - |
| 1777620720 | 11.67° C | 58% | 1029.8 hPa | - | - | - | - |
| 1777618920 | 12.78° C | 62% | 1029.3 hPa | - | - | - | - |
| 1777617120 | 11.67° C | 60% | 1029.7 hPa | - | - | - | - |
| 1777615321 | 12.22° C | 62% | 1029.2 hPa | - | - | - | - |
| 1777613520 | 11.11° C | 66% | 1029.4 hPa | - | - | - | - |
| 1777611720 | 10° C | 66% | 1029.6 hPa | - | - | - | - |
| 1777609920 | 10° C | 67% | 1029.4 hPa | - | - | - | - |
| 1777608120 | 10° C | 69% | 1029.4 hPa | - | - | - | - |
| 1777606335 | 9.44° C | 67% | 1029.5 hPa | - | - | - | - |
| 1777582920 | 10° C | 71% | 1029.3 hPa | - | - | - | - |
| 1777581120 | 10° C | 69% | 1028.9 hPa | - | - | - | - |
| 1777579320 | 8.89° C | 70% | 1029 hPa | - | - | - | - |
| 1777577520 | 10° C | 65% | 1028.2 hPa | - | - | - | - |
| 1777575720 | 9.44° C | 69% | 1028.4 hPa | - | - | - | - |
| 1777573920 | 10° C | 71% | 1027.6 hPa | - | - | - | - |
| 1777572120 | 11.67° C | 67% | 1026.6 hPa | - | - | - | - |
* Rain since midnight (hover to see other rain measurements)
** Current wind speed in m/s (hover to see current wind gust speed)